Time;durP1;ratioP1;P1;durP2;ratioP2;P2;SDS_P1;SDS_P2;PMS_P1;PMS_P2;Temp;Humidity;BMP_temperature;BMP_pressure;BME280_temperature;BME280_humidity;BME280_pressure;Samples;Min_cycle;Max_cycle;Signal;HPM_P1;HPM_P2
2021/09/21 00:00:29;;;;;;;6.95;4.95;;;;;;;14.10;57.11;100559.97;1088602;54;20014;-83
2021/09/21 00:01:31;;;;;;;8.60;5.10;;;;;;;14.13;57.00;100565.03;1088465;54;20062;-83
2021/09/21 00:02:38;;;;;;;7.57;5.40;;;;;;;14.14;57.25;100574.78;1088576;54;20263;-80
2021/09/21 00:03:40;;;;;;;8.77;5.15;;;;;;;14.13;57.27;100582.00;1088518;54;20038;-80
2021/09/21 00:04:45;;;;;;;6.97;5.38;;;;;;;14.10;56.99;100574.25;1088602;54;20015;-83
2021/09/21 00:05:56;;;;;;;6.50;4.72;;;;;;;14.10;57.21;100574.25;1088529;54;20060;-79
2021/09/21 00:06:58;;;;;;;6.63;5.22;;;;;;;14.08;57.37;100576.25;1088570;54;20067;-80
2021/09/21 00:08:02;;;;;;;7.65;5.20;;;;;;;14.04;57.36;100585.63;1088500;54;20123;-80
2021/09/21 00:09:04;;;;;;;7.75;5.10;;;;;;;14.03;57.34;100584.78;1088231;54;20034;-82
2021/09/21 00:10:15;;;;;;;9.50;5.53;;;;;;;14.00;57.63;100578.88;1088545;54;20082;-79
2021/09/21 00:11:17;;;;;;;6.75;4.82;;;;;;;14.02;57.28;100588.50;1088488;54;20572;-78
2021/09/21 00:12:24;;;;;;;7.60;4.88;;;;;;;14.05;57.27;100590.00;1088490;54;20027;-82
2021/09/21 00:13:26;;;;;;;7.63;4.68;;;;;;;14.06;57.29;100591.72;1088390;54;20030;-82
2021/09/21 00:14:30;;;;;;;6.70;5.15;;;;;;;14.08;57.32;100587.00;1088556;54;20018;-81
2021/09/21 00:15:35;;;;;;;8.05;5.20;;;;;;;14.02;57.37;100593.88;1088465;54;20102;-81
2021/09/21 00:16:40;;;;;;;7.70;5.40;;;;;;;14.00;57.54;100590.47;1088511;54;20038;-82
2021/09/21 00:17:52;;;;;;;7.38;5.90;;;;;;;13.96;57.66;100580.19;1088573;54;20110;-81
2021/09/21 00:18:54;;;;;;;8.05;4.93;;;;;;;13.99;57.40;100587.91;1088451;54;20094;-81
2021/09/21 00:19:59;;;;;;;6.78;5.72;;;;;;;13.97;57.42;100585.41;1088488;54;20015;-81
2021/09/21 00:21:02;;;;;;;6.45;4.75;;;;;;;14.08;57.26;100581.63;1088444;54;20722;-79
2021/09/21 00:22:07;;;;;;;6.50;4.88;;;;;;;14.05;57.04;100576.56;1088382;54;20019;-82
2021/09/21 00:23:10;;;;;;;6.75;5.38;;;;;;;14.08;56.79;100575.41;1088487;54;20698;-81
2021/09/21 00:24:14;;;;;;;7.85;5.70;;;;;;;14.02;56.67;100582.25;1088546;54;20019;-80
2021/09/21 00:25:22;;;;;;;7.15;4.93;;;;;;;14.00;56.81;100578.88;1088438;54;20030;-81
2021/09/21 00:26:24;;;;;;;7.38;5.60;;;;;;;13.98;56.72;100588.94;1088564;54;20034;-83
2021/09/21 00:27:29;;;;;;;7.13;5.13;;;;;;;14.01;56.93;100581.41;1089242;39;20453;-79
2021/09/21 00:28:33;;;;;;;6.72;4.97;;;;;;;14.00;56.72;100585.09;1088567;54;20031;-82
2021/09/21 00:29:35;;;;;;;6.53;4.78;;;;;;;13.97;56.27;100589.94;1088467;54;20030;-82
2021/09/21 00:30:48;;;;;;;5.97;4.43;;;;;;;14.02;56.12;100588.50;1090302;46;20054;-80
2021/09/21 00:32:02;;;;;;;6.30;4.97;;;;;;;13.99;56.14;100582.53;1088545;54;20607;-81
2021/09/21 00:33:05;;;;;;;6.43;5.18;;;;;;;13.98;56.44;100586.25;1088542;54;20038;-80
2021/09/21 00:34:13;;;;;;;6.00;4.78;;;;;;;14.00;56.17;100584.25;1088448;54;20025;-79
2021/09/21 00:35:15;;;;;;;7.63;4.80;;;;;;;13.93;56.22;100581.34;1089541;46;20014;-83
2021/09/21 00:36:22;;;;;;;6.30;4.57;;;;;;;13.97;56.29;100587.25;1088464;54;20018;-82
2021/09/21 00:37:24;;;;;;;7.63;5.55;;;;;;;13.96;56.53;100582.88;1088513;54;20733;-81
2021/09/21 00:38:29;;;;;;;6.57;5.18;;;;;;;13.93;56.61;100581.34;1088460;54;20022;-82
2021/09/21 00:39:31;;;;;;;8.02;5.20;;;;;;;13.92;56.53;100582.34;1088437;54;20039;-83
2021/09/21 00:40:35;;;;;;;7.32;5.13;;;;;;;13.93;56.39;100589.41;1088470;54;20038;-81
2021/09/21 00:41:38;;;;;;;5.93;4.70;;;;;;;13.90;56.13;100589.72;1102283;39;20598;-82
2021/09/21 00:42:49;;;;;;;5.97;4.82;;;;;;;13.92;56.30;100594.91;1094509;46;20026;-82
2021/09/21 00:43:50;;;;;;;8.68;5.05;;;;;;;13.91;56.24;100587.84;1088563;54;20022;-82
2021/09/21 00:45:05;;;;;;;7.18;4.95;;;;;;;13.87;56.37;100590.88;1088543;54;20588;-82
2021/09/21 00:46:13;;;;;;;6.22;4.82;;;;;;;13.89;56.19;100579.94;1088476;54;20022;-81
2021/09/21 00:47:14;;;;;;;7.60;4.53;;;;;;;13.92;56.47;100587.72;1088501;54;20729;-81
2021/09/21 00:48:19;;;;;;;6.90;4.88;;;;;;;13.95;56.36;100589.25;1088881;39;20451;-80
2021/09/21 00:49:20;;;;;;;6.60;5.07;;;;;;;13.96;56.09;100593.63;1088416;54;20034;-80
2021/09/21 00:50:30;;;;;;;7.60;5.03;;;;;;;13.96;56.02;100583.72;1088445;54;20041;-81
2021/09/21 00:51:32;;;;;;;5.78;4.70;;;;;;;13.94;56.46;100585.69;1088420;54;20861;-81
2021/09/21 00:52:42;;;;;;;6.57;5.30;;;;;;;13.95;56.10;100576.63;1088539;54;20710;-81
2021/09/21 00:53:47;;;;;;;7.18;5.30;;;;;;;13.90;56.40;100595.09;1088497;54;20034;-81
2021/09/21 00:54:50;;;;;;;6.43;5.20;;;;;;;13.93;56.35;100588.53;1088446;54;20039;-82
2021/09/21 00:55:55;;;;;;;8.70;4.97;;;;;;;13.90;56.46;100595.09;1088476;54;20760;-82
2021/09/21 00:56:57;;;;;;;6.13;4.78;;;;;;;13.90;56.50;100584.34;1088546;54;20034;-81
2021/09/21 00:58:02;;;;;;;6.82;4.72;;;;;;;13.92;56.57;100592.22;1088511;54;20074;-80
2021/09/21 00:59:10;;;;;;;8.35;4.72;;;;;;;13.93;56.31;100588.53;1088483;54;20018;-82
2021/09/21 01:00:17;;;;;;;6.38;4.72;;;;;;;13.93;56.43;100584.03;1091999;46;20026;-80
2021/09/21 01:01:22;;;;;;;7.07;4.72;;;;;;;13.92;56.38;100581.47;1088464;54;20030;-81
2021/09/21 01:02:26;;;;;;;8.40;4.82;;;;;;;13.90;56.48;100584.34;1088532;54;20035;-80
2021/09/21 01:03:28;;;;;;;7.93;4.57;;;;;;;13.92;56.28;100586.84;1088557;54;20022;-81
2021/09/21 01:04:55;;;;;;;6.15;4.68;;;;;;;13.93;56.20;100585.84;1089269;39;20526;-80
2021/09/21 01:05:57;;;;;;;6.25;4.47;;;;;;;13.92;56.45;100581.47;1088561;54;20047;-81
2021/09/21 01:07:07;;;;;;;7.88;4.10;;;;;;;13.91;56.19;100587.84;1095378;46;20078;-80
2021/09/21 01:08:09;;;;;;;6.43;5.10;;;;;;;13.86;56.38;100591.84;1088476;54;20054;-81
2021/09/21 01:09:21;;;;;;;13.15;5.40;;;;;;;13.87;55.93;100596.25;1088435;54;20025;-82
2021/09/21 01:10:26;;;;;;;6.40;5.10;;;;;;;13.79;56.52;100593.44;1088472;54;20018;-81
2021/09/21 01:11:37;;;;;;;7.25;5.03;;;;;;;13.78;56.86;100597.16;1090028;46;20018;-82
2021/09/21 01:12:39;;;;;;;6.95;4.90;;;;;;;13.82;56.61;100593.16;1088476;54;20035;-80
2021/09/21 01:13:45;;;;;;;6.22;4.82;;;;;;;13.82;56.51;100590.47;1088410;54;20078;-81
2021/09/21 01:14:47;;;;;;;7.32;4.97;;;;;;;13.85;56.56;100587.47;1088336;54;20037;-82
2021/09/21 01:15:57;;;;;;;7.88;5.03;;;;;;;13.89;56.67;100571.88;1088401;54;20756;-81
2021/09/21 01:17:01;;;;;;;7.30;4.90;;;;;;;13.93;56.64;100583.19;1088477;54;20050;-81
2021/09/21 01:18:06;;;;;;;7.93;5.38;;;;;;;13.91;56.70;100577.09;1088404;54;20014;-83
2021/09/21 01:19:11;;;;;;;6.63;4.45;;;;;;;13.94;56.74;100579.50;1088850;39;20669;-80
2021/09/21 01:20:20;;;;;;;6.28;4.90;;;;;;;13.92;56.39;100576.09;1088047;54;20029;-82
2021/09/21 01:21:25;;;;;;;5.80;4.40;;;;;;;13.92;56.55;100576.97;1088413;54;20034;-81
2021/09/21 01:22:29;;;;;;;6.97;4.32;;;;;;;13.99;56.32;100580.72;1088464;54;20623;-82
2021/09/21 01:23:32;;;;;;;5.95;4.30;;;;;;;14.03;56.27;100583.94;1088353;54;20018;-80
2021/09/21 01:24:38;;;;;;;6.50;4.40;;;;;;;14.00;56.38;100584.25;1088385;54;20042;-81
2021/09/21 01:25:42;;;;;;;6.00;4.72;;;;;;;14.01;56.59;100589.47;1088527;54;20034;-81
2021/09/21 01:26:45;;;;;;;7.18;4.13;;;;;;;14.01;56.48;100594.84;1088458;54;20023;-82
2021/09/21 01:27:50;;;;;;;8.00;4.10;;;;;;;14.02;56.61;100591.19;1088152;54;20031;-82
2021/09/21 01:28:52;;;;;;;6.10;4.38;;;;;;;13.99;56.54;100596.00;1088406;54;20030;-81
2021/09/21 01:29:58;;;;;;;5.45;4.28;;;;;;;14.01;56.58;100602.94;1088409;54;20011;-81
2021/09/21 01:31:00;;;;;;;5.75;4.43;;;;;;;13.98;56.50;100605.06;1088423;54;20037;-80
2021/09/21 01:32:19;;;;;;;6.05;4.18;;;;;;;13.93;56.89;100610.91;1088330;54;20038;-81
2021/09/21 01:33:24;;;;;;;6.20;4.25;;;;;;;13.96;56.99;100604.38;1098594;39;20440;-81
2021/09/21 01:34:26;;;;;;;6.07;4.47;;;;;;;14.05;56.78;100598.06;1092890;39;20659;-80
2021/09/21 01:35:30;;;;;;;5.63;3.63;;;;;;;14.08;56.59;100597.75;1088302;54;20027;-82
2021/09/21 01:36:35;;;;;;;6.05;4.32;;;;;;;14.07;56.84;100595.22;1088379;54;20049;-80
2021/09/21 01:37:42;;;;;;;6.53;4.55;;;;;;;14.04;56.59;100593.69;1088423;54;20018;-82
2021/09/21 01:38:45;;;;;;;6.55;4.85;;;;;;;14.00;56.71;100595.84;1088331;54;20058;-81
2021/09/21 01:39:50;;;;;;;7.78;4.50;;;;;;;14.02;57.00;100593.00;1088368;54;20078;-82
2021/09/21 01:40:52;;;;;;;5.93;4.25;;;;;;;14.04;56.67;100591.00;1088387;54;20038;-81
2021/09/21 01:41:56;;;;;;;5.95;3.92;;;;;;;14.06;56.78;100597.09;1088340;54;20019;-81
2021/09/21 01:43:02;;;;;;;6.30;4.95;;;;;;;13.99;57.10;100594.16;1088439;54;20059;-81
2021/09/21 01:44:06;;;;;;;9.40;5.00;;;;;;;13.92;57.33;100600.28;1088335;54;20634;-81
2021/09/21 01:45:09;;;;;;;6.10;5.18;;;;;;;13.92;57.39;100602.97;1088449;54;20031;-82
2021/09/21 01:46:15;;;;;;;7.72;5.43;;;;;;;13.84;57.59;100603.72;1095457;39;20524;-81
2021/09/21 01:47:20;;;;;;;6.75;4.82;;;;;;;13.86;57.60;100609.81;1088344;54;20019;-81
2021/09/21 01:48:24;;;;;;;6.78;4.90;;;;;;;13.90;57.46;100616.59;1088379;54;20038;-79
2021/09/21 01:49:29;;;;;;;8.82;5.13;;;;;;;13.92;57.55;100614.59;1088364;54;20073;-80
2021/09/21 01:50:41;;;;;;;6.70;4.72;;;;;;;13.92;57.42;100611.03;1088331;54;20041;-82
2021/09/21 01:51:53;;;;;;;5.72;4.10;;;;;;;13.93;57.28;100610.91;1088249;54;20046;-81
2021/09/21 01:53:00;;;;;;;7.65;4.53;;;;;;;13.96;57.60;100609.75;1088248;54;20046;-81
2021/09/21 01:54:14;;;;;;;7.90;4.85;;;;;;;13.94;57.62;100607.19;1088339;54;20079;-80
2021/09/21 01:59:26;;;;;;;6.55;4.80;;;;;;;13.80;57.97;100595.13;1088050;54;20115;-81
2021/09/21 02:00:28;;;;;;;6.13;4.22;;;;;;;13.80;57.77;100595.13;1088196;54;20029;-81
2021/09/21 02:01:33;;;;;;;5.65;4.35;;;;;;;13.82;57.77;100589.63;1088181;54;20097;-80
2021/09/21 02:02:35;;;;;;;8.48;4.18;;;;;;;13.85;57.72;100590.16;1088025;54;20018;-82
2021/09/21 02:03:39;;;;;;;5.70;4.65;;;;;;;13.89;57.75;100583.47;1091588;46;20038;-82
2021/09/21 02:05:20;;;;;;;5.13;4.00;;;;;;;13.80;57.82;100589.75;1092409;46;20037;-82
2021/09/21 02:06:28;;;;;;;7.10;4.57;;;;;;;13.78;57.93;100586.41;1092500;46;20027;-82
2021/09/21 02:07:35;;;;;;;6.53;4.25;;;;;;;13.86;57.58;100588.31;1089786;46;20041;-80
2021/09/21 02:08:37;;;;;;;7.40;4.72;;;;;;;13.82;57.96;100584.25;1088106;54;20104;-82
2021/09/21 02:09:41;;;;;;;6.22;4.28;;;;;;;13.88;57.86;100587.19;1088115;54;20054;-81
2021/09/21 02:10:43;;;;;;;5.18;4.10;;;;;;;13.90;57.72;100589.72;1088250;54;20033;-83
2021/09/21 02:12:19;;;;;;;6.97;4.75;;;;;;;13.76;57.91;100592.91;1088090;54;20876;-82
2021/09/21 02:13:21;;;;;;;7.30;4.97;;;;;;;13.72;57.73;100595.91;1088160;54;20019;-80
2021/09/21 02:14:37;;;;;;;6.00;4.43;;;;;;;13.67;57.98;100592.81;1088173;54;20059;-81
2021/09/21 02:15:39;;;;;;;6.68;5.25;;;;;;;13.64;58.23;100598.53;1088119;54;20742;-83
2021/09/21 02:16:45;;;;;;;6.32;4.70;;;;;;;13.73;57.84;100594.94;1088028;54;20022;-81
2021/09/21 02:17:47;;;;;;;6.13;4.22;;;;;;;13.73;58.01;100594.94;1088084;54;20027;-83
2021/09/21 02:18:53;;;;;;;7.95;4.60;;;;;;;13.74;58.08;100598.44;1088224;54;20041;-81
2021/09/21 02:19:55;;;;;;;6.60;4.78;;;;;;;13.70;58.08;100605.97;1088174;54;20027;-83
2021/09/21 02:21:02;;;;;;;5.45;4.10;;;;;;;13.82;58.02;100608.44;1087992;54;20043;-81
2021/09/21 02:22:04;;;;;;;6.60;3.90;;;;;;;13.84;57.79;100607.28;1088081;54;20031;-80
2021/09/21 02:23:11;;;;;;;5.78;4.30;;;;;;;13.89;57.60;100607.66;1087990;54;20103;-83
2021/09/21 02:24:18;;;;;;;6.10;4.18;;;;;;;13.92;57.67;100614.59;1087955;54;20717;-82
2021/09/21 02:25:23;;;;;;;6.63;4.60;;;;;;;13.92;57.76;100605.66;1088174;54;20027;-82
2021/09/21 02:26:36;;;;;;;6.88;4.93;;;;;;;13.81;57.72;100604.06;1088028;54;20792;-81
2021/09/21 02:27:38;;;;;;;5.85;4.40;;;;;;;13.82;57.82;100603.06;1087995;54;20010;-82
2021/09/21 02:28:44;;;;;;;6.80;5.00;;;;;;;13.84;57.80;100611.78;1087612;54;20030;-81
2021/09/21 02:29:46;;;;;;;5.47;4.50;;;;;;;13.78;57.85;100607.03;1088084;54;20045;-82
2021/09/21 02:30:51;;;;;;;6.10;4.57;;;;;;;13.78;58.00;100613.28;1087952;54;20018;-82
2021/09/21 02:31:55;;;;;;;6.22;4.47;;;;;;;13.81;57.64;100609.44;1087886;54;20027;-81
2021/09/21 02:32:59;;;;;;;5.95;3.95;;;;;;;13.87;57.43;100611.50;1088948;39;20697;-81
2021/09/21 02:34:20;;;;;;;6.68;3.95;;;;;;;13.88;57.69;100607.81;1088029;54;20034;-82
2021/09/21 02:35:22;;;;;;;6.30;4.90;;;;;;;13.80;57.69;100605.06;1097695;39;20738;-81
2021/09/21 02:36:33;;;;;;;6.45;4.85;;;;;;;13.80;57.83;100607.75;1088254;54;20035;-82
2021/09/21 02:37:34;;;;;;;;;;;;;;;13.71;57.65;100599.59;1088436;54;20038;-81
2021/09/21 02:38:44;;;;;;;6.57;4.40;;;;;;;13.75;57.73;100605.50;1088238;54;20622;-81
2021/09/21 02:39:46;;;;;;;5.93;4.30;;;;;;;13.81;57.54;100601.38;1089246;39;20650;-82
2021/09/21 02:40:50;;;;;;;7.03;4.25;;;;;;;13.80;57.68;100605.88;1088313;54;20018;-83
2021/09/21 02:41:52;;;;;;;6.20;4.47;;;;;;;13.84;57.73;100607.28;1088265;54;20774;-80
2021/09/21 02:42:57;;;;;;;5.85;4.53;;;;;;;13.78;57.51;100607.91;1088213;54;20107;-81
2021/09/21 02:43:58;;;;;;;7.72;4.68;;;;;;;13.74;57.64;100606.50;1088321;54;20045;-82
2021/09/21 02:45:03;;;;;;;5.95;4.72;;;;;;;13.75;57.63;100607.34;1088351;54;20017;-82
2021/09/21 03:11:08;;;;;;;5.47;4.38;;;;;;;13.60;58.07;100628.53;1087498;39;20804;-81
2021/09/21 03:12:19;;;;;;;6.43;4.68;;;;;;;13.61;58.06;100632.88;1088220;54;20022;-80
2021/09/21 03:13:39;;;;;;;7.05;5.10;;;;;;;13.56;58.18;100636.00;1088077;54;20018;-81
2021/09/21 03:17:19;;;;;;;5.60;4.13;;;;;;;13.56;58.29;100642.25;1088277;54;20019;-81
2021/09/21 03:18:34;;;;;;;6.13;4.63;;;;;;;13.63;57.97;100641.63;1088248;54;20038;-80
2021/09/21 03:19:46;;;;;;;7.35;4.53;;;;;;;13.67;58.00;100645.72;1088059;54;20034;-81
2021/09/21 03:21:12;;;;;;;6.43;4.25;;;;;;;13.68;58.08;100642.88;1087856;54;20059;-80
2021/09/21 03:22:22;;;;;;;5.68;4.07;;;;;;;13.75;57.94;100645.81;1088014;54;20034;-81
2021/09/21 03:23:28;;;;;;;5.80;3.75;;;;;;;13.81;57.77;100641.69;1093089;47;20096;-81
2021/09/21 03:24:30;;;;;;;5.13;3.80;;;;;;;13.87;57.54;100644.63;1087794;54;20035;-81
2021/09/21 03:25:35;;;;;;;5.13;3.90;;;;;;;13.88;57.56;100646.31;1089866;39;20630;-82
2021/09/21 03:26:41;;;;;;;5.28;3.67;;;;;;;13.89;57.51;100653.34;1088022;54;20034;-80
2021/09/21 03:27:46;;;;;;;5.45;3.72;;;;;;;13.88;57.57;100654.38;1095520;47;20011;-81
2021/09/21 03:28:51;;;;;;;6.65;4.93;;;;;;;13.88;57.39;100659.75;1087955;54;20064;-81
2021/09/21 03:30:21;;;;;;;6.32;4.93;;;;;;;13.81;57.58;100655.13;1088013;47;20050;-80
2021/09/21 03:31:26;;;;;;;8.35;4.32;;;;;;;13.78;57.54;100656.28;1087913;54;20033;-81
2021/09/21 03:32:39;;;;;;;7.93;5.22;;;;;;;13.74;57.70;100660.25;1087949;54;20023;-81
2021/09/21 03:33:41;;;;;;;6.47;4.80;;;;;;;13.77;57.89;100654.56;1087957;54;20018;-80
2021/09/21 03:34:46;;;;;;;7.05;4.30;;;;;;;13.80;57.84;100643.50;1087826;54;20019;-81
2021/09/21 03:35:50;;;;;;;6.15;4.53;;;;;;;13.73;57.64;100651.34;1087849;54;20035;-81
2021/09/21 03:36:56;;;;;;;6.10;4.50;;;;;;;13.81;57.51;100647.88;1087710;54;20056;-80
2021/09/21 03:37:58;;;;;;;6.55;5.43;;;;;;;13.74;57.72;100654.88;1093477;39;20535;-82
2021/09/21 03:39:08;;;;;;;6.47;5.10;;;;;;;13.66;57.36;100652.09;1088070;54;20019;-83
2021/09/21 03:40:13;;;;;;;6.10;5.00;;;;;;;13.60;57.60;100658.91;1088036;54;20035;-80
2021/09/21 03:41:18;;;;;;;7.88;6.10;;;;;;;13.56;57.86;100660.19;1092085;47;20039;-82
2021/09/21 03:42:22;;;;;;;7.88;5.88;;;;;;;13.51;57.89;100647.22;1087937;54;20034;-80
2021/09/21 03:43:26;;;;;;;8.95;5.80;;;;;;;13.51;57.96;100652.56;1087952;54;20057;-80
2021/09/21 03:44:28;;;;;;;9.13;5.75;;;;;;;13.55;57.94;100647.78;1088245;54;20038;-79
2021/09/21 03:45:33;;;;;;;6.43;5.32;;;;;;;13.55;57.83;100653.16;1088390;54;20628;-81
2021/09/21 03:46:37;;;;;;;6.55;5.07;;;;;;;13.54;58.05;100652.28;1088257;54;20022;-81
2021/09/21 03:47:40;;;;;;;6.40;5.30;;;;;;;13.50;58.11;100650.91;1088341;54;20019;-82
2021/09/21 03:48:44;;;;;;;8.70;5.75;;;;;;;13.43;58.40;100648.97;1088246;54;20034;-81
2021/09/21 03:49:47;;;;;;;8.23;6.45;;;;;;;13.35;58.53;100645.16;1088496;54;20019;-80
2021/09/21 03:50:51;;;;;;;8.35;6.35;;;;;;;13.30;59.00;100646.59;1088382;54;20100;-80
2021/09/21 03:52:39;;;;;;;9.30;6.70;;;;;;;13.18;59.39;100644.09;1088338;54;20051;-80
2021/09/21 03:53:41;;;;;;;8.55;6.70;;;;;;;13.16;59.48;100642.56;1088416;54;20033;-81
2021/09/21 03:54:45;;;;;;;8.85;6.93;;;;;;;13.16;59.62;100651.44;1088329;54;20113;-82
2021/09/21 03:55:47;;;;;;;9.75;6.25;;;;;;;13.21;59.39;100646.50;1088484;54;20031;-80
2021/09/21 03:57:00;;;;;;;7.63;6.05;;;;;;;13.24;59.64;100653.41;1088387;54;20018;-81
2021/09/21 03:58:05;;;;;;;8.40;6.60;;;;;;;13.19;59.55;100651.16;1088381;54;20030;-82
2021/09/21 03:59:15;;;;;;;7.38;5.95;;;;;;;13.13;59.73;100657.09;1088315;54;20018;-83
2021/09/21 04:00:18;;;;;;;9.52;6.75;;;;;;;13.10;59.64;100654.72;1088237;54;20015;-79
2021/09/21 04:01:23;;;;;;;8.20;6.28;;;;;;;13.17;59.93;100657.66;1088163;54;20034;-79
2021/09/21 04:02:32;;;;;;;7.63;6.43;;;;;;;13.20;59.97;100662.72;1092785;39;20567;-80
2021/09/21 04:03:36;;;;;;;8.23;6.53;;;;;;;13.21;59.64;100664.41;1088267;54;20035;-80
2021/09/21 04:04:38;;;;;;;10.60;7.00;;;;;;;13.19;59.85;100659.19;1088287;54;20781;-82
2021/09/21 04:05:42;;;;;;;8.32;6.95;;;;;;;13.21;60.11;100664.41;1087989;54;20030;-82
2021/09/21 04:06:46;;;;;;;9.43;6.55;;;;;;;13.20;59.78;100668.94;1088255;54;20022;-79
2021/09/21 04:07:51;;;;;;;7.40;6.20;;;;;;;13.16;59.99;100662.16;1088076;54;20038;-79
2021/09/21 04:09:02;;;;;;;8.02;6.93;;;;;;;13.18;59.88;100670.94;1088375;54;20018;-81
2021/09/21 04:10:06;;;;;;;8.40;6.68;;;;;;;13.15;59.96;100671.22;1088390;54;20041;-82
2021/09/21 04:11:11;;;;;;;9.10;7.22;;;;;;;13.15;60.19;100665.84;1088010;54;20022;-81
2021/09/21 04:12:13;;;;;;;8.20;6.90;;;;;;;13.16;60.20;100667.53;1088533;54;20019;-81
2021/09/21 04:13:20;;;;;;;9.27;6.50;;;;;;;13.15;59.86;100663.16;1088614;54;20030;-80
2021/09/21 04:14:22;;;;;;;12.55;7.82;;;;;;;13.12;60.29;100668.84;1088513;54;20034;-80
2021/09/21 04:15:26;;;;;;;7.80;6.47;;;;;;;13.08;60.31;100664.75;1088513;54;20029;-81
2021/09/21 04:16:30;;;;;;;8.75;6.75;;;;;;;13.08;60.39;100672.81;1088424;54;20038;-81
2021/09/21 04:17:34;;;;;;;8.77;7.05;;;;;;;13.09;60.06;100678.00;1088490;54;20059;-81
2021/09/21 04:18:36;;;;;;;7.55;6.70;;;;;;;13.12;60.00;100682.25;1088482;54;20042;-80
2021/09/21 04:19:41;;;;;;;8.00;6.05;;;;;;;13.16;59.96;100678.28;1088624;54;20030;-81
2021/09/21 04:20:43;;;;;;;10.18;8.27;;;;;;;13.11;60.27;100683.25;1088503;54;20018;-83
2021/09/21 04:21:53;;;;;;;9.13;7.07;;;;;;;13.12;60.08;100687.63;1088533;54;20030;-82
2021/09/21 04:22:56;;;;;;;12.35;7.90;;;;;;;13.05;60.30;100683.81;1088436;54;20047;-81
2021/09/21 04:24:01;;;;;;;9.05;6.57;;;;;;;13.11;60.31;100688.63;1088595;54;20086;-81
2021/09/21 04:25:03;;;;;;;8.00;6.28;;;;;;;13.15;60.28;100691.84;1088525;54;20030;-82
2021/09/21 04:26:08;;;;;;;7.50;6.55;;;;;;;13.20;59.98;100692.25;1088353;54;20546;-82
2021/09/21 04:27:16;;;;;;;7.57;6.25;;;;;;;13.17;60.26;100693.41;1088585;54;20039;-82
2021/09/21 04:28:23;;;;;;;7.47;5.80;;;;;;;13.29;60.17;100688.69;1088480;54;20029;-80
2021/09/21 04:29:25;;;;;;;8.07;6.22;;;;;;;13.31;59.88;100691.25;1088536;54;20053;-82
2021/09/21 04:30:30;;;;;;;7.78;5.70;;;;;;;13.33;59.93;100695.47;1088476;54;20019;-82
2021/09/21 04:31:33;;;;;;;7.43;5.97;;;;;;;13.32;59.90;100701.00;1088419;54;20098;-82
2021/09/21 04:32:44;;;;;;;8.80;6.88;;;;;;;13.33;59.63;100699.97;1096160;39;20579;-82
2021/09/21 04:33:46;;;;;;;7.40;5.60;;;;;;;13.34;59.96;100702.53;1088498;54;20019;-81
2021/09/21 04:34:51;;;;;;;7.57;5.80;;;;;;;13.39;59.68;100710.19;1088374;54;20034;-82
2021/09/21 04:35:55;;;;;;;9.30;6.45;;;;;;;13.36;59.93;100710.44;1088552;54;20039;-80
2021/09/21 04:36:57;;;;;;;8.43;6.60;;;;;;;13.32;60.08;100714.44;1088524;54;20038;-83
2021/09/21 04:38:02;;;;;;;8.23;6.28;;;;;;;13.26;60.21;100711.31;1088505;54;20049;-83
2021/09/21 04:39:09;;;;;;;8.43;6.72;;;;;;;13.23;60.61;100714.28;1092564;39;20484;-82
2021/09/21 04:40:15;;;;;;;8.50;6.55;;;;;;;13.25;60.42;100719.53;1088360;54;20034;-82
2021/09/21 04:41:16;;;;;;;9.30;7.03;;;;;;;13.19;60.78;100720.94;1088353;54;20772;-81
2021/09/21 04:42:22;;;;;;;8.13;6.38;;;;;;;13.16;60.77;100723.09;1088524;54;20033;-81
2021/09/21 04:43:28;;;;;;;8.20;6.47;;;;;;;13.15;61.01;100724.91;1088487;54;20042;-82
2021/09/21 04:44:33;;;;;;;8.88;7.05;;;;;;;13.14;60.82;100728.56;1088569;54;20026;-82
2021/09/21 04:45:37;;;;;;;9.20;6.60;;;;;;;13.13;60.87;100737.63;1088937;39;20602;-82
2021/09/21 04:46:39;;;;;;;9.55;7.32;;;;;;;13.10;61.00;100737.94;1088513;54;20026;-81
2021/09/21 04:47:50;;;;;;;8.77;7.30;;;;;;;13.04;61.15;100739.34;1088496;54;20034;-81
2021/09/21 04:48:52;;;;;;;8.57;6.30;;;;;;;13.03;61.23;100742.19;1088513;54;20026;-82
2021/09/21 04:50:10;;;;;;;7.78;6.85;;;;;;;13.01;61.21;100744.16;1088447;54;20015;-81
2021/09/21 04:51:12;;;;;;;9.20;7.45;;;;;;;13.00;61.21;100737.09;1088297;54;20027;-81
2021/09/21 04:52:17;;;;;;;9.65;8.32;;;;;;;13.00;60.99;100742.47;1088530;54;20624;-82
2021/09/21 04:53:21;;;;;;;9.60;8.05;;;;;;;12.99;61.33;100748.81;1088564;54;20026;-81
2021/09/21 04:54:26;;;;;;;8.90;7.28;;;;;;;12.98;61.49;100747.13;1088492;54;20050;-81
2021/09/21 04:55:30;;;;;;;9.00;7.55;;;;;;;13.02;61.29;100746.69;1088473;54;20038;-81
2021/09/21 04:56:32;;;;;;;9.05;6.78;;;;;;;13.05;61.47;100750.91;1088448;54;20042;-81
2021/09/21 04:57:37;;;;;;;9.95;6.97;;;;;;;13.11;61.27;100750.38;1088440;54;20027;-82
2021/09/21 04:58:52;;;;;;;7.68;6.30;;;;;;;13.17;60.97;100755.16;1088411;54;20678;-80
2021/09/21 04:59:54;;;;;;;8.35;6.45;;;;;;;13.19;60.80;100753.16;1088456;54;20018;-81
2021/09/21 05:00:59;;;;;;;7.85;6.65;;;;;;;13.16;60.88;100753.44;1088394;54;20698;-82
2021/09/21 05:02:01;;;;;;;9.38;6.90;;;;;;;13.21;60.89;100756.56;1088459;54;20022;-82
2021/09/21 05:03:08;;;;;;;8.88;6.82;;;;;;;13.17;60.98;100762.38;1088524;54;20018;-82
2021/09/21 05:04:09;;;;;;;8.45;7.18;;;;;;;13.17;61.02;100765.03;1088491;54;20042;-84
2021/09/21 05:06:23;;;;;;;10.30;6.28;;;;;;;13.28;60.86;100756.81;1087746;39;21324;-81
2021/09/21 05:07:24;;;;;;;9.07;6.70;;;;;;;13.23;61.04;100749.19;1087612;54;20642;-81
2021/09/21 05:08:29;;;;;;;8.45;6.28;;;;;;;13.22;60.74;100757.41;1087635;54;20035;-80
2021/09/21 05:09:32;;;;;;;10.20;6.93;;;;;;;13.24;60.72;100756.25;1088855;46;20045;-83
2021/09/21 05:10:36;;;;;;;9.88;6.72;;;;;;;13.26;60.69;100754.28;1087848;54;20037;-83
2021/09/21 05:11:38;;;;;;;9.27;7.20;;;;;;;13.23;61.14;100749.19;1087796;54;20030;-80
2021/09/21 05:12:42;;;;;;;8.52;6.85;;;;;;;13.26;60.77;100758.81;1087794;54;20034;-79
2021/09/21 05:13:43;;;;;;;11.60;7.10;;;;;;;13.12;61.12;100757.44;1087662;54;20042;-78
2021/09/21 05:14:50;;;;;;;10.38;8.18;;;;;;;13.12;61.37;100762.78;1087651;54;20042;-80
2021/09/21 05:15:54;;;;;;;12.07;7.53;;;;;;;13.14;61.35;100765.31;1087734;54;20061;-80
2021/09/21 05:16:56;;;;;;;8.60;6.97;;;;;;;13.18;61.33;100762.22;1087732;54;20030;-79
2021/09/21 05:18:01;;;;;;;7.82;6.50;;;;;;;13.25;60.79;100767.84;1088156;46;20034;-81
2021/09/21 05:19:05;;;;;;;8.13;6.18;;;;;;;13.30;60.73;100762.88;1088673;46;20034;-81
2021/09/21 05:20:11;;;;;;;7.22;5.80;;;;;;;13.34;60.84;100772.34;1088696;46;20034;-82
2021/09/21 05:21:13;;;;;;;8.13;6.05;;;;;;;13.40;60.71;100776.34;1087784;54;20038;-81
2021/09/21 05:22:17;;;;;;;6.75;5.70;;;;;;;13.45;60.58;100774.03;1087631;54;20034;-81
2021/09/21 05:23:19;;;;;;;10.57;5.78;;;;;;;13.45;60.49;100767.84;1088671;46;20061;-80
2021/09/21 05:24:23;;;;;;;8.57;6.40;;;;;;;13.34;60.55;100772.34;1087434;54;20115;-81
2021/09/21 05:25:35;;;;;;;9.32;7.30;;;;;;;13.29;60.35;100771.09;1087565;54;20066;-82
2021/09/21 05:26:50;;;;;;;7.82;6.85;;;;;;;13.26;60.78;100772.22;1087659;54;20046;-82
2021/09/21 05:27:52;;;;;;;7.50;6.70;;;;;;;13.22;60.75;100773.50;1087663;54;20046;-80
2021/09/21 05:28:56;;;;;;;8.75;6.78;;;;;;;13.24;60.65;100772.34;1087767;54;20061;-80
2021/09/21 05:30:07;;;;;;;8.10;6.47;;;;;;;13.27;60.71;100771.25;1087687;54;20122;-80
2021/09/21 05:31:09;;;;;;;7.97;6.68;;;;;;;13.27;60.69;100777.44;1087697;54;20045;-80
2021/09/21 05:32:13;;;;;;;8.00;6.20;;;;;;;13.29;60.56;100766.56;1087682;54;20037;-79
2021/09/21 05:33:15;;;;;;;8.38;7.00;;;;;;;13.28;60.70;100764.84;1087647;54;20035;-81
2021/09/21 05:34:19;;;;;;;9.43;6.50;;;;;;;13.28;60.70;100767.53;1087614;54;20034;-80
2021/09/21 05:35:20;;;;;;;8.02;6.50;;;;;;;13.31;60.36;100766.44;1087645;54;20030;-80
2021/09/21 05:36:24;;;;;;;7.25;6.15;;;;;;;13.36;60.54;100766.81;1087566;54;20030;-81
2021/09/21 05:37:27;;;;;;;9.25;7.63;;;;;;;13.33;60.35;100772.47;1087632;54;20737;-79
2021/09/21 05:38:32;;;;;;;11.23;8.60;;;;;;;13.32;60.78;100768.97;1087656;54;20034;-80